Hamble, United Kingdom
Current Conditions -  °F | °C
As of 9:20 PM on Monday 24 Nov 2014 (Local Time) from EGHI Reporting Station
Clear Clear  
Wind Chill: 25°   Ceiling: Unl
Heat Index: 30°   Visibility: 6mi
Dew Point: 28°   Wind: 5mph
Humidity: 93%   Direction: 20°NNE
Pressure: 30.33"   Gusts: NA
Location:  50.86°N, 1.32°W
Report Text: EGHI 242120Z 02004KT CAVOK M01/M02 Q1027
Loading
Personal Weather Stations






























Interactive Weather Map New forecast layout! Learn more

10-Day Weather Forecast

Advertisements
Track Severe Weather on mobile